Euskara    
Meteorología y climatología de Navarra
Datos de la estación - Meteo Navarra

Estación de Carcastillo (La Oliva) GN

Altitud 343 m.


Datos desde el 22/11/2020 hasta el 23/11/2020 en horario solar
Los datos son PROVISIONALES

Anterior Página 1 de 1 Siguiente Descargar: Formato para Excel 2000 o superior   Formato csv   Formato para OpenOffice Calc
Fecha Temperatura Humedad relativa Radiación global Insolación Precipitación Vel. viento 10 m Vel. viento 10 m Dir. viento 10 m
°C % W/m² s l/m² m/s km/h °
22/11/2020 0:00 0.0 90 0.0 0 0.0 1.3 4.8 126
22/11/2020 0:10 -0.2 90 0.0 0 0.0 1.1 4.0 130
22/11/2020 0:20 -0.4 90 0.0 0 0.0 1.1 4.0 126
22/11/2020 0:30 -0.7 91 0.0 0 0.0 1.3 4.6 121
22/11/2020 0:40 -0.9 91 0.0 0 0.0 0.1 0.5 131
22/11/2020 0:50 -1.0 91 0.0 0 0.0 1.0 3.5 126
22/11/2020 1:00 -0.7 93 0.0 0 0.0 2.0 7.2 123
22/11/2020 1:10 -0.6 93 0.0 0 0.0 1.5 5.5 123
22/11/2020 1:20 -0.6 93 0.0 0 0.0 1.0 3.7 124
22/11/2020 1:30 -0.7 92 0.0 0 0.0 1.9 6.7 121
22/11/2020 1:40 -0.7 93 0.0 0 0.0 1.6 5.9 124
22/11/2020 1:50 -0.8 92 0.0 0 0.0 2.0 7.1 127
22/11/2020 2:00 -0.9 92 0.0 0 0.0 1.2 4.2 125
22/11/2020 2:10 -1.0 93 0.0 0 0.0 1.1 3.9 127
22/11/2020 2:20 -0.9 93 0.0 0 0.0 1.8 6.3 119
22/11/2020 2:30 -1.0 93 0.0 0 0.0 0.7 2.4 124
22/11/2020 2:40 -1.2 93 0.0 0 0.0 0.0 0.0 161
22/11/2020 2:50 -1.4 93 0.0 0 0.0 0.2 0.7 161
22/11/2020 3:00 -1.6 93 0.0 0 0.0 0.1 0.2 148
22/11/2020 3:10 -1.6 94 0.0 0 0.0 0.1 0.5 125
22/11/2020 3:20 -1.7 94 0.0 0 0.0 0.1 0.4 135
22/11/2020 3:30 -1.8 94 0.0 0 0.0 0.1 0.4 130
22/11/2020 3:40 -2.0 94 0.0 0 0.0 0.3 1.1 144
22/11/2020 3:50 -2.1 95 0.0 0 0.0 0.0 0.0 121
22/11/2020 4:00 -2.1 95 0.0 0 0.0 0.0 0.0 0
22/11/2020 4:10 -2.2 95 0.0 0 0.0 0.1 0.5 253
22/11/2020 4:20 -2.3 95 0.0 0 0.0 0.0 0.0 253
22/11/2020 4:30 -2.4 95 0.0 0 0.0 0.0 0.0 0
22/11/2020 4:40 -2.5 94 0.0 0 0.0 0.0 0.0 0
22/11/2020 4:50 -2.6 95 0.0 0 0.0 0.0 0.0 0
22/11/2020 5:00 -2.8 95 0.0 0 0.0 0.0 0.0 0
22/11/2020 5:10 -3.0 95 0.0 0 0.0 0.0 0.0 0
22/11/2020 5:20 -3.0 95 0.0 0 0.0 0.3 1.2 133
22/11/2020 5:30 -3.1 94 0.0 0 0.0 0.0 0.0 0
22/11/2020 5:40 -3.2 95 0.0 0 0.0 0.3 1.2 145
22/11/2020 5:50 -3.1 96 0.0 0 0.0 0.7 2.6 146
22/11/2020 6:00 -3.2 96 0.0 0 0.0 0.6 2.3 138
22/11/2020 6:10 -3.5 95 0.0 0 0.0 1.2 4.1 126
22/11/2020 6:20 -3.4 96 0.0 0 0.0 1.8 6.3 126
22/11/2020 6:30 -3.1 97 0.0 0 0.0 1.8 6.4 128
22/11/2020 6:40 -2.9 98 0.0 0 0.0 1.9 6.7 129
22/11/2020 6:50 -2.6 98 0.0 0 0.0 1.6 5.7 130
22/11/2020 7:00 -2.5 98 0.0 0 0.0 0.3 1.0 199
22/11/2020 7:10 -2.5 98 0.0 0 0.0 0.1 0.3 223
22/11/2020 7:20 -2.8 97 0.9 0 0.0 0.0 0.0 0
22/11/2020 7:30 -2.9 96 27.7 220 0.0 0.0 0.0 0
22/11/2020 7:40 -2.7 96 46.6 600 0.0 0.0 0.0 0
22/11/2020 7:50 -2.7 96 69.0 600 0.0 0.0 0.0 223
22/11/2020 8:00 -2.6 97 93.4 600 0.0 0.6 2.0 239
22/11/2020 8:10 -2.2 99 118.7 600 0.0 0.4 1.3 257
22/11/2020 8:20 -2.0 99 144.9 600 0.0 0.2 0.5 82
22/11/2020 8:30 -1.3 100 172.1 600 0.0 0.1 0.2 93
22/11/2020 8:40 -0.3 100 199.4 600 0.0 0.1 0.3 240
22/11/2020 8:50 0.6 98 225.3 600 0.0 0.0 0.0 0
22/11/2020 9:00 1.2 93 249.4 600 0.0 0.0 0.0 0
22/11/2020 9:10 2.1 89 272.9 600 0.0 0.0 0.0 0
22/11/2020 9:20 3.0 85 290.8 600 0.0 0.0 0.0 0
22/11/2020 9:30 3.7 82 315.2 600 0.0 0.0 0.0 0
22/11/2020 9:40 4.4 79 337.5 600 0.0 0.0 0.0 0
22/11/2020 9:50 5.3 74 356.0 600 0.0 0.0 0.0 132
22/11/2020 10:00 5.4 73 373.9 600 0.0 0.1 0.2 320
22/11/2020 10:10 5.3 74 391.0 600 0.0 0.1 0.5 315
22/11/2020 10:20 5.5 75 406.9 600 0.0 0.5 1.8 319
22/11/2020 10:30 5.9 74 420.4 600 0.0 0.1 0.4 313
22/11/2020 10:40 6.7 72 433.0 600 0.0 0.6 2.1 278
22/11/2020 10:50 7.3 68 444.5 600 0.0 1.0 3.6 264
22/11/2020 11:00 7.4 68 454.0 600 0.0 0.9 3.4 270
22/11/2020 11:10 7.6 66 462.9 600 0.0 1.2 4.4 279
22/11/2020 11:20 7.9 64 471.5 600 0.0 0.8 3.0 283
22/11/2020 11:30 8.4 62 478.9 600 0.0 1.0 3.7 264
22/11/2020 11:40 8.8 59 486.7 600 0.0 1.0 3.7 248
22/11/2020 11:50 9.0 59 491.6 600 0.0 1.0 3.6 246
22/11/2020 12:00 9.5 57 493.3 600 0.0 0.8 3.0 258
22/11/2020 12:10 9.7 57 491.1 600 0.0 0.9 3.4 266
22/11/2020 12:20 9.8 58 488.5 600 0.0 1.0 3.7 249
22/11/2020 12:30 10.3 56 482.8 600 0.0 0.5 1.9 261
22/11/2020 12:40 10.6 53 476.1 600 0.0 0.5 1.7 255
22/11/2020 12:50 10.7 53 468.2 600 0.0 0.5 1.8 276
22/11/2020 13:00 11.0 52 457.7 600 0.0 0.4 1.5 270
22/11/2020 13:10 11.2 51 447.9 600 0.0 0.5 1.7 276
22/11/2020 13:20 11.6 51 433.6 600 0.0 1.0 3.4 259
22/11/2020 13:30 11.6 50 420.5 600 0.0 0.8 3.0 275
22/11/2020 13:40 11.7 49 405.7 600 0.0 1.0 3.6 275
22/11/2020 13:50 11.8 48 388.7 600 0.0 0.6 2.2 300
22/11/2020 14:00 12.1 48 369.7 600 0.0 0.4 1.3 289
22/11/2020 14:10 12.3 46 349.2 600 0.0 0.2 0.8 271
22/11/2020 14:20 12.6 46 327.2 600 0.0 0.8 3.0 261
22/11/2020 14:30 12.7 46 303.1 600 0.0 0.3 1.2 259
22/11/2020 14:40 12.7 46 280.2 600 0.0 0.6 2.1 278
22/11/2020 14:50 12.7 44 255.6 600 0.0 0.4 1.4 268
22/11/2020 15:00 12.7 44 237.4 600 0.0 0.9 3.4 272
22/11/2020 15:10 12.4 46 202.5 600 0.0 0.9 3.2 278
22/11/2020 15:20 12.4 46 168.4 600 0.0 1.0 3.5 279
22/11/2020 15:30 12.4 46 133.2 584 0.0 0.6 2.1 276
22/11/2020 15:40 12.2 47 106.2 582 0.0 0.2 0.8 312
22/11/2020 15:50 12.1 47 97.0 600 0.0 0.4 1.3 308
22/11/2020 16:00 12.0 49 78.3 600 0.0 0.3 1.0 299
22/11/2020 16:10 12.1 50 57.3 600 0.0 0.2 0.6 310
22/11/2020 16:20 12.1 54 33.5 410 0.0 0.0 0.0 302
22/11/2020 16:30 11.6 53 7.0 0 0.0 0.0 0.0 0
22/11/2020 16:40 10.4 56 0.0 0 0.0 0.2 0.6 199
22/11/2020 16:50 9.1 61 0.0 0 0.0 0.1 0.3 193
22/11/2020 17:00 8.4 65 0.0 0 0.0 0.0 0.0 0
22/11/2020 17:10 7.6 67 0.0 0 0.0 0.0 0.0 0
22/11/2020 17:20 7.0 68 0.0 0 0.0 0.0 0.0 0
22/11/2020 17:30 6.4 70 0.0 0 0.0 0.0 0.0 0
22/11/2020 17:40 5.4 72 0.0 0 0.0 0.0 0.0 109
22/11/2020 17:50 4.7 74 0.0 0 0.0 1.1 3.9 118
22/11/2020 18:00 4.3 78 0.0 0 0.0 0.9 3.1 128
22/11/2020 18:10 4.0 79 0.0 0 0.0 0.8 2.7 112
22/11/2020 18:20 3.5 78 0.0 0 0.0 1.2 4.4 106
22/11/2020 18:30 3.5 80 0.0 0 0.0 1.4 5.1 122
22/11/2020 18:40 3.1 80 0.0 0 0.0 1.1 4.0 124
22/11/2020 18:50 2.9 80 0.0 0 0.0 1.3 4.5 115
22/11/2020 19:00 2.4 81 0.0 0 0.0 1.1 4.1 117
22/11/2020 19:10 2.1 82 0.0 0 0.0 0.6 2.0 126
22/11/2020 19:20 1.9 84 0.0 0 0.0 0.4 1.4 119
22/11/2020 19:30 1.9 84 0.0 0 0.0 1.3 4.8 113
22/11/2020 19:40 1.4 84 0.0 0 0.0 1.4 4.9 120
22/11/2020 19:50 1.3 86 0.0 0 0.0 2.4 8.6 115
22/11/2020 20:00 1.4 87 0.0 0 0.0 2.1 7.4 118
22/11/2020 20:10 1.3 87 0.0 0 0.0 2.0 7.3 117
22/11/2020 20:20 1.1 87 0.0 0 0.0 2.3 8.4 120
22/11/2020 20:30 1.2 88 0.0 0 0.0 2.3 8.4 118
22/11/2020 20:40 1.1 88 0.0 0 0.0 2.3 8.4 122
22/11/2020 20:50 1.2 89 0.0 0 0.0 2.6 9.2 127
22/11/2020 21:00 1.6 89 0.0 0 0.0 2.4 8.7 128
22/11/2020 21:10 1.7 87 0.0 0 0.0 2.2 8.1 124
22/11/2020 21:20 1.3 87 0.0 0 0.0 2.4 8.5 122
22/11/2020 21:30 0.9 88 0.0 0 0.0 1.9 6.8 120
22/11/2020 21:40 0.6 88 0.0 0 0.0 1.6 5.9 120
22/11/2020 21:50 0.4 89 0.0 0 0.0 1.4 5.1 125
22/11/2020 22:00 0.3 90 0.0 0 0.0 1.1 4.1 129
22/11/2020 22:10 0.3 91 0.0 0 0.0 1.5 5.5 126
22/11/2020 22:20 0.1 90 0.0 0 0.0 2.1 7.4 119
22/11/2020 22:30 -0.1 91 0.0 0 0.0 2.0 7.2 121
22/11/2020 22:40 -0.2 92 0.0 0 0.0 2.0 7.1 117
22/11/2020 22:50 -0.4 92 0.0 0 0.0 1.8 6.5 120
22/11/2020 23:00 -0.4 93 0.0 0 0.0 1.7 6.0 117
22/11/2020 23:10 -0.6 93 0.0 0 0.0 0.5 1.8 114
22/11/2020 23:20 -0.8 93 0.0 0 0.0 1.0 3.5 121
22/11/2020 23:30 -1.0 93 0.0 0 0.0 1.2 4.2 122
22/11/2020 23:40 -1.1 94 0.0 0 0.0 1.3 4.8 124
22/11/2020 23:50 -1.0 95 0.0 0 0.0 1.5 5.3 124
Anterior Página 1 de 1 Siguiente

NOTA: Tipo de datos según el color:
   - Valores diarios o 10 minutos correctos
   - Valores diarios calculados a partir de un número de datos 10 minutos menor que 144 y mayor que 120, o de un número de datos semihorarios menor que 48 y mayor que 40 (caso de las estaciones de INTIA Y Ministerio)
   - Valores diez minutos estimados


Contacto        Enlaces        Aviso legal